Time;durP1;ratioP1;P1;durP2;ratioP2;P2;SDS_P1;SDS_P2;PMS_P1;PMS_P2;Temp;Humidity;BMP_temperature;BMP_pressure;BME280_temperature;BME280_humidity;BME280_pressure;Samples;Min_cycle;Max_cycle;Signal;HPM_P1;HPM_P2
2022/06/13 00:00:43;;;;;;;5.13;2.20;;;;;;;36.78;23.36;94102.88;5058522;28;20685;-67
2022/06/13 00:03:27;;;;;;;4.33;2.50;;;;;;;36.62;25.03;94120.75;5056011;28;20263;-67
2022/06/13 00:06:12;;;;;;;5.83;3.40;;;;;;;33.35;30.58;94128.09;5049254;28;20208;-69
2022/06/13 00:08:56;;;;;;;4.03;3.43;;;;;;;34.61;30.57;94119.03;5056519;28;20201;-67
2022/06/13 00:11:41;;;;;;;6.03;3.27;;;;;;;36.12;28.99;94122.66;5058310;28;20215;-68
2022/06/13 00:14:25;;;;;;;4.33;3.57;;;;;;;36.93;28.32;94121.44;5058825;28;20240;-66
2022/06/13 00:17:10;;;;;;;5.27;3.23;;;;;;;36.98;28.15;94143.22;5053999;28;20237;-66
2022/06/13 00:19:54;;;;;;;8.37;4.17;;;;;;;37.29;28.18;94151.94;5049678;28;20632;-68
2022/06/13 00:22:39;;;;;;;6.30;4.43;;;;;;;37.18;28.91;94157.34;5050175;28;20206;-68
2022/06/13 00:25:23;;;;;;;6.00;4.23;;;;;;;39.08;25.19;94167.78;5050987;28;20225;-69
2022/06/13 00:28:08;;;;;;;6.00;4.17;;;;;;;38.10;27.67;94173.06;5059747;28;20671;-63
2022/06/13 00:30:52;;;;;;;7.87;4.03;;;;;;;36.41;28.65;94170.91;5054791;28;20201;-68
2022/06/13 00:33:37;;;;;;;3.83;3.53;;;;;;;38.21;27.23;94164.69;5061098;28;20256;-68
2022/06/13 00:36:23;;;;;;;9.13;5.13;;;;;;;39.69;25.81;94162.75;5048481;28;20205;-71
2022/06/13 00:39:07;;;;;;;24.07;4.60;;;;;;;38.63;26.74;94160.47;5056178;28;20287;-69
2022/06/13 00:41:51;;;;;;;4.77;4.03;;;;;;;39.01;26.19;94146.75;5056992;28;20228;-72
2022/06/13 00:44:37;;;;;;;5.77;4.90;;;;;;;38.52;26.52;94150.56;5048148;28;20233;-71
2022/06/13 00:47:21;;;;;;;6.20;5.47;;;;;;;38.18;27.59;94166.25;5057504;28;20197;-70
2022/06/13 00:50:08;;;;;;;8.47;5.70;;;;;;;38.24;27.09;94154.34;5056813;28;20197;-71
2022/06/13 00:52:58;;;;;;;6.67;5.50;;;;;;;39.03;25.76;94134.97;5055443;28;20205;-66
2022/06/13 00:55:52;;;;;;;9.93;6.57;;;;;;;38.74;26.38;94122.75;5050855;28;20200;-70
2022/06/13 00:58:45;;;;;;;8.00;5.73;;;;;;;38.38;27.23;94124.63;5053898;28;20814;-69
2022/06/13 01:01:32;;;;;;;6.40;5.80;;;;;;;38.48;26.77;94115.56;5053685;28;20210;-68
2022/06/13 01:04:16;;;;;;;11.73;7.07;;;;;;;38.30;26.72;94110.25;5055863;28;20240;-68
2022/06/13 01:07:02;;;;;;;5.53;5.03;;;;;;;37.16;28.72;94093.09;5049784;28;20270;-68
2022/06/13 01:12:50;;;;;;;7.23;5.73;;;;;;;36.97;29.22;94082.66;5063501;28;20254;-69
2022/06/13 01:15:46;;;;;;;6.70;5.37;;;;;;;37.32;28.56;94080.22;5044051;28;20304;-69
2022/06/13 01:18:57;;;;;;;6.47;5.67;;;;;;;38.13;27.61;94094.69;5046657;28;20256;-68
2022/06/13 01:22:15;;;;;;;7.47;5.87;;;;;;;38.43;27.48;94096.66;5043580;28;20278;-68
2022/06/13 01:25:21;;;;;;;8.00;6.17;;;;;;;39.31;26.93;94112.75;5048505;28;20226;-68
2022/06/13 01:28:23;;;;;;;8.80;5.53;;;;;;;39.03;27.13;94110.81;5055479;28;20694;-68
2022/06/13 01:31:32;;;;;;;9.03;5.63;;;;;;;39.11;26.31;94104.66;5048792;28;20206;-68
2022/06/13 01:34:50;;;;;;;12.80;7.10;;;;;;;39.93;26.38;94109.03;5050543;28;20308;-69
2022/06/13 01:37:47;;;;;;;7.67;6.73;;;;;;;39.16;26.16;94106.66;5051853;28;20197;-69
2022/06/13 01:40:49;;;;;;;7.97;6.33;;;;;;;39.02;26.89;94112.31;5056624;28;20673;-70
2022/06/13 01:43:52;;;;;;;7.97;6.77;;;;;;;38.48;27.77;94121.41;5053315;28;20196;-70
2022/06/13 01:46:43;;;;;;;9.67;6.67;;;;;;;37.30;28.65;94120.50;5059526;28;20256;-70
2022/06/13 01:49:48;;;;;;;8.93;7.40;;;;;;;36.48;30.36;94121.81;5047238;28;20272;-70
2022/06/13 01:53:05;;;;;;;8.53;5.77;;;;;;;35.66;32.12;94143.31;5043660;28;20205;-69
2022/06/13 01:55:59;;;;;;;7.97;5.60;;;;;;;35.84;30.88;94161.94;5047485;28;20781;-69
2022/06/13 01:58:57;;;;;;;9.80;5.70;;;;;;;35.88;31.00;94170.59;5050878;28;20248;-69
2022/06/13 02:01:54;;;;;;;13.40;5.80;;;;;;;35.69;31.44;94165.16;5053970;28;20242;-71
2022/06/13 02:05:00;;;;;;;13.30;6.93;;;;;;;38.68;28.58;94147.13;5056212;28;20257;-73
2022/06/13 02:07:48;;;;;;;7.23;6.00;;;;;;;35.85;30.75;94143.69;5058565;28;20247;-71
2022/06/13 02:10:38;;;;;;;8.57;6.10;;;;;;;37.80;27.88;94142.47;5052730;28;20201;-72
2022/06/13 02:13:37;;;;;;;8.07;6.40;;;;;;;37.29;28.98;94128.53;5060305;28;20193;-72
2022/06/13 02:16:26;;;;;;;6.37;5.40;;;;;;;37.22;28.73;94125.06;5056221;28;20198;-63
2022/06/13 02:19:17;;;;;;;7.73;6.10;;;;;;;36.58;29.68;94115.03;5057335;28;20213;-66
2022/06/13 02:22:13;;;;;;;7.57;6.30;;;;;;;36.65;29.59;94117.06;5049141;28;20212;-67
2022/06/13 02:25:02;;;;;;;8.57;7.00;;;;;;;36.69;29.20;94113.31;5053784;28;20216;-67
2022/06/13 02:28:04;;;;;;;9.60;6.80;;;;;;;38.82;27.54;94117.31;5055038;28;20367;-67
2022/06/13 02:30:51;;;;;;;9.80;6.83;;;;;;;38.25;27.86;94109.66;5048362;28;20291;-67
2022/06/13 02:33:43;;;;;;;9.80;6.93;;;;;;;38.46;27.80;94115.56;5050293;28;20709;-68
2022/06/13 02:36:38;;;;;;;7.03;5.87;;;;;;;38.11;28.15;94110.09;5043369;28;20229;-67
2022/06/13 02:39:32;;;;;;;6.50;5.20;;;;;;;36.14;30.37;94114.59;5058450;28;20671;-67
2022/06/13 02:42:25;;;;;;;8.50;5.60;;;;;;;36.87;30.42;94133.28;5060245;28;20201;-67
2022/06/13 02:45:31;;;;;;;8.50;5.50;;;;;;;35.18;31.80;94158.84;5052477;28;20740;-68
2022/06/13 02:48:30;;;;;;;9.20;6.10;;;;;;;35.73;33.06;94190.59;5050150;28;20329;-67
2022/06/13 02:51:27;;;;;;;123.90;10.07;;;;;;;35.92;33.89;94197.47;5050348;28;20260;-71
2022/06/13 02:54:21;;;;;;;3.93;1.07;;;;;;;34.65;30.81;94145.16;5049154;28;20243;-70
2022/06/13 02:57:24;;;;;;;3.07;0.70;;;;;;;34.90;30.77;94168.78;5043666;28;20223;-68
2022/06/13 03:00:13;;;;;;;5.23;1.13;;;;;;;37.11;28.85;94176.50;5057762;28;20594;-67
2022/06/13 03:03:08;;;;;;;4.27;1.70;;;;;;;37.20;28.36;94177.75;5059175;28;20228;-68
2022/06/13 03:06:06;;;;;;;3.23;1.90;;;;;;;38.35;27.34;94155.47;5052983;28;20229;-69
2022/06/13 03:09:02;;;;;;;6.63;2.10;;;;;;;37.92;27.89;94121.63;5049898;28;20685;-69
2022/06/13 03:11:50;;;;;;;4.80;2.23;;;;;;;38.03;26.80;94107.41;5059626;28;20259;-69
2022/06/13 03:14:45;;;;;;;3.73;2.43;;;;;;;38.42;27.46;94125.22;5062414;28;20208;-72
2022/06/13 03:17:47;;;;;;;5.70;2.00;;;;;;;38.22;27.09;94125.13;5054058;28;20202;-71
2022/06/13 03:20:52;;;;;;;4.43;2.00;;;;;;;38.36;26.91;94121.78;5063259;28;20216;-69
2022/06/13 03:23:47;;;;;;;4.43;2.07;;;;;;;38.11;26.79;94106.47;5053781;28;20301;-69
2022/06/13 03:26:53;;;;;;;5.23;2.23;;;;;;;37.93;27.65;94102.59;5046863;28;20264;-69
2022/06/13 03:29:47;;;;;;;3.57;1.83;;;;;;;37.13;28.06;94085.88;5059014;28;20217;-71
2022/06/13 03:32:37;;;;;;;2.20;1.60;;;;;;;37.89;27.14;94091.00;5045518;28;20240;-71
2022/06/13 03:35:21;;;;;;;2.63;1.83;;;;;;;37.43;27.50;94090.16;5052088;28;20181;-70
2022/06/13 03:38:10;;;;;;;2.83;1.83;;;;;;;36.79;28.60;94098.44;5060857;28;20286;-71
2022/06/13 03:40:57;;;;;;;2.43;1.23;;;;;;;37.39;27.90;94101.25;5057888;28;20205;-69
2022/06/13 03:43:49;;;;;;;1.83;1.47;;;;;;;36.93;28.76;94086.38;5046492;28;20619;-69
2022/06/13 03:46:47;;;;;;;2.83;1.10;;;;;;;38.41;26.85;94093.78;5052688;28;20205;-69
2022/06/13 03:50:20;;;;;;;2.27;1.40;;;;;;;38.44;26.74;94092.94;5057660;28;20248;-70
2022/06/13 03:53:15;;;;;;;1.30;1.20;;;;;;;38.20;27.50;94098.88;5049596;28;20194;-70
2022/06/13 03:56:09;;;;;;;3.37;1.50;;;;;;;38.31;26.84;94085.34;5050056;28;20232;-71
2022/06/13 03:59:08;;;;;;;3.20;1.57;;;;;;;38.21;27.55;94076.88;5056609;28;20558;-69
2022/06/13 04:02:01;;;;;;;2.00;1.80;;;;;;;38.08;27.20;94070.00;5047090;28;20210;-71
2022/06/13 04:04:48;;;;;;;3.07;1.43;;;;;;;38.09;27.44;94077.25;5063559;28;20336;-71
2022/06/13 04:07:36;;;;;;;2.90;1.50;;;;;;;37.90;27.09;94074.88;5058097;28;20206;-71
2022/06/13 04:10:23;;;;;;;1.40;1.30;;;;;;;38.04;26.86;94083.25;5047148;28;20198;-72
2022/06/13 04:13:07;;;;;;;3.03;1.10;;;;;;;37.11;28.20;94076.44;5054306;28;20200;-65
2022/06/13 04:15:53;;;;;;;1.30;1.20;;;;;;;36.82;28.56;94085.22;5054927;28;20202;-68
2022/06/13 04:18:47;;;;;;;1.50;1.40;;;;;;;36.17;28.74;94078.06;5049090;28;20209;-67
2022/06/13 04:21:42;;;;;;;1.50;1.40;;;;;;;36.66;29.13;94082.75;5052367;28;20217;-69
2022/06/13 04:24:51;;;;;;;6.13;1.80;;;;;;;35.49;29.88;94074.47;5054143;28;20217;-69
2022/06/13 04:27:59;;;;;;;1.63;1.40;;;;;;;36.27;29.64;94072.00;5058413;28;20208;-69
2022/06/13 04:30:46;;;;;;;1.97;1.70;;;;;;;34.98;31.06;94074.72;5048175;28;20208;-69
2022/06/13 04:33:45;;;;;;;3.83;2.07;;;;;;;34.02;32.90;94084.31;5057769;28;21392;-69
2022/06/13 04:36:31;;;;;;;3.43;2.17;;;;;;;34.87;31.72;94083.66;5047822;28;20201;-69
2022/06/13 04:39:20;;;;;;;4.60;2.90;;;;;;;35.76;30.33;94080.44;5062759;28;20229;-69
2022/06/13 04:42:07;;;;;;;5.33;3.17;;;;;;;34.79;31.66;94078.00;5050198;28;20661;-69
2022/06/13 04:44:52;;;;;;;4.90;3.37;;;;;;;35.57;31.31;94066.25;5048754;28;20308;-69
2022/06/13 04:47:37;;;;;;;4.60;3.37;;;;;;;36.32;30.54;94070.41;5046181;28;20314;-68
2022/06/13 04:50:37;;;;;;;6.53;3.17;;;;;;;36.57;30.14;94072.72;5056484;28;20209;-69
2022/06/13 04:53:26;;;;;;;4.83;3.57;;;;;;;35.28;31.45;94074.16;5054463;28;20205;-67
2022/06/13 04:56:10;;;;;;;4.53;3.23;;;;;;;36.49;29.64;94080.19;5057198;28;20268;-68
2022/06/13 04:58:56;;;;;;;4.60;2.87;;;;;;;36.71;29.30;94086.97;5055353;28;20247;-68
2022/06/13 05:01:45;;;;;;;4.83;3.30;;;;;;;38.07;28.38;94086.81;5055211;28;20192;-67
2022/06/13 05:04:32;;;;;;;3.00;2.77;;;;;;;38.27;27.84;94085.47;5051731;28;20233;-66
2022/06/13 05:07:19;;;;;;;3.27;2.97;;;;;;;37.86;28.12;94092.56;5052286;28;20213;-68
2022/06/13 05:10:11;;;;;;;3.67;3.13;;;;;;;38.17;28.39;94098.22;5051590;28;20244;-68
2022/06/13 05:12:56;;;;;;;3.27;2.97;;;;;;;37.44;29.37;94096.72;5046875;28;20201;-69
2022/06/13 05:15:42;;;;;;;3.73;3.00;;;;;;;37.50;28.46;94099.47;5048833;28;20287;-69
2022/06/13 05:18:31;;;;;;;3.87;3.17;;;;;;;38.36;28.30;94102.00;5053185;28;20327;-65
2022/06/13 05:21:28;;;;;;;4.03;3.43;;;;;;;38.98;27.44;94097.78;5048963;28;20279;-66
2022/06/13 05:24:39;;;;;;;3.27;2.80;;;;;;;38.73;27.65;94104.47;5050379;28;20606;-66
2022/06/13 05:27:24;;;;;;;3.73;3.43;;;;;;;39.34;26.91;94104.56;5050180;28;20217;-69
2022/06/13 05:30:13;;;;;;;4.10;2.97;;;;;;;39.47;27.18;94100.44;5050921;28;20193;-67
2022/06/13 05:32:57;;;;;;;3.70;2.80;;;;;;;39.50;26.95;94101.78;5049880;28;20561;-68
2022/06/13 05:35:43;;;;;;;3.47;3.17;;;;;;;39.77;26.87;94106.69;5050921;28;20224;-69
2022/06/13 05:38:35;;;;;;;5.20;3.13;;;;;;;39.95;26.63;94117.75;5047378;28;20209;-67
2022/06/13 05:41:19;;;;;;;2.73;2.53;;;;;;;38.56;27.69;94103.56;5049317;28;20212;-71
2022/06/13 05:44:05;;;;;;;3.57;2.80;;;;;;;38.83;26.94;94107.03;5046534;28;20217;-70
2022/06/13 05:46:50;;;;;;;5.27;3.20;;;;;;;39.17;26.70;94102.25;5043738;28;20224;-71
2022/06/13 05:49:35;;;;;;;3.83;3.37;;;;;;;39.17;26.87;94110.31;5045740;28;20198;-70
2022/06/13 05:52:19;;;;;;;7.03;4.13;;;;;;;39.14;27.19;94103.09;5050109;28;20209;-68
2022/06/13 05:55:03;;;;;;;4.50;3.40;;;;;;;38.90;26.82;94092.19;5042422;28;20200;-68
2022/06/13 05:57:47;;;;;;;3.57;3.27;;;;;;;39.20;27.35;94105.78;5055365;28;20232;-67
2022/06/13 06:00:42;;;;;;;5.77;3.27;;;;;;;39.70;26.69;94112.06;5053827;28;20205;-67
2022/06/13 06:03:27;;;;;;;3.57;2.77;;;;;;;38.82;26.82;94105.59;5052569;28;20249;-68
2022/06/13 06:06:24;;;;;;;4.80;3.33;;;;;;;39.00;27.34;94115.31;5050261;28;20279;-67
2022/06/13 06:09:08;;;;;;;5.63;4.80;;;;;;;38.87;28.09;94111.34;5050977;28;20201;-67
2022/06/13 06:11:52;;;;;;;5.57;4.33;;;;;;;37.26;29.47;94107.44;5046838;28;20209;-68
2022/06/13 06:14:36;;;;;;;4.50;3.50;;;;;;;38.16;28.89;94116.53;5039144;28;20214;-69
2022/06/13 06:17:21;;;;;;;4.20;3.23;;;;;;;39.37;27.22;94112.56;5048746;28;20221;-70
2022/06/13 06:20:05;;;;;;;4.00;3.03;;;;;;;39.88;26.82;94107.75;5053158;28;20252;-67
2022/06/13 06:22:49;;;;;;;4.57;2.80;;;;;;;39.62;27.59;94121.91;5047618;28;20702;-71
2022/06/13 06:25:33;;;;;;;3.17;2.63;;;;;;;40.15;27.53;94114.03;5047315;28;20253;-70
2022/06/13 06:28:24;;;;;;;4.23;2.87;;;;;;;40.60;27.36;94121.09;5045795;28;20213;-70
2022/06/13 06:31:10;;;;;;;2.70;2.50;;;;;;;40.28;27.48;94108.44;5048220;28;20201;-70
2022/06/13 06:33:54;;;;;;;5.00;2.57;;;;;;;39.05;27.46;94128.34;5050951;28;20613;-71
2022/06/13 06:36:38;;;;;;;3.23;2.93;;;;;;;38.69;28.00;94122.19;5053719;28;20746;-70
2022/06/13 06:39:22;;;;;;;3.80;2.80;;;;;;;39.46;27.57;94130.56;5047120;28;20201;-70
2022/06/13 06:42:06;;;;;;;2.77;2.57;;;;;;;39.23;27.65;94133.56;5045703;28;20205;-71
2022/06/13 06:44:50;;;;;;;3.43;3.13;;;;;;;39.05;27.81;94125.41;5049135;28;20232;-72
2022/06/13 06:47:35;;;;;;;3.83;2.60;;;;;;;39.56;26.88;94133.88;5052720;28;20292;-72
2022/06/13 06:50:26;;;;;;;4.30;3.90;;;;;;;39.07;28.49;94140.00;5053793;28;20209;-72
2022/06/13 06:53:11;;;;;;;3.70;3.40;;;;;;;39.08;28.46;94136.25;5052469;28;20243;-70
2022/06/13 07:02:02;;;;;;;3.40;3.20;;;;;;;40.78;27.14;94138.72;5060804;28;20630;-64
2022/06/13 07:04:46;;;;;;;6.23;3.57;;;;;;;41.44;26.36;94142.56;5063507;28;20262;-64
2022/06/13 07:07:30;;;;;;;4.43;3.13;;;;;;;40.06;28.25;94145.22;5049785;28;20574;-63
2022/06/13 07:10:14;;;;;;;4.37;3.83;;;;;;;41.11;27.17;94146.91;5057366;28;20236;-63
2022/06/13 07:12:58;;;;;;;3.80;3.40;;;;;;;38.85;28.23;94144.34;5066761;28;20212;-62
2022/06/13 07:15:42;;;;;;;3.43;3.13;;;;;;;39.26;27.71;94154.75;5054128;28;20217;-63
2022/06/13 07:18:26;;;;;;;4.73;3.50;;;;;;;39.28;27.88;94152.44;5052862;28;20611;-62
2022/06/13 07:21:12;;;;;;;4.03;3.50;;;;;;;40.09;27.86;94161.25;5059777;28;20196;-62
2022/06/13 07:23:56;;;;;;;5.93;4.23;;;;;;;37.92;30.00;94153.81;5055027;28;20642;-62
2022/06/13 07:26:40;;;;;;;4.30;3.90;;;;;;;38.19;28.78;94167.69;5059546;28;20646;-61
2022/06/13 07:29:24;;;;;;;5.07;4.57;;;;;;;40.15;26.83;94175.72;5060235;28;20236;-61
2022/06/13 07:32:15;;;;;;;9.77;3.93;;;;;;;40.38;26.70;94173.34;5051488;28;20206;-61
2022/06/13 07:35:01;;;;;;;4.53;4.00;;;;;;;39.08;27.68;94165.56;5058874;28;20244;-62
2022/06/13 07:40:54;;;;;;;4.30;3.90;;;;;;;39.59;26.75;94190.94;5060365;28;20702;-61
2022/06/13 07:43:38;;;;;;;6.90;3.63;;;;;;;39.75;27.08;94180.13;5057628;28;20321;-62
2022/06/13 07:46:28;;;;;;;5.77;4.37;;;;;;;40.59;27.49;94167.41;5060563;28;20329;-62
2022/06/13 07:49:13;;;;;;;5.83;4.17;;;;;;;40.27;26.56;94175.25;5055432;28;20562;-62
2022/06/13 07:51:58;;;;;;;7.50;3.73;;;;;;;39.95;26.97;94176.47;5057403;28;20712;-62
2022/06/13 07:54:42;;;;;;;4.63;4.13;;;;;;;40.79;26.60;94175.44;5055279;28;20663;-62
2022/06/13 07:57:26;;;;;;;8.10;4.27;;;;;;;39.93;27.24;94188.31;5044031;28;20220;-62
2022/06/13 08:00:18;;;;;;;4.13;3.73;;;;;;;40.78;26.96;94170.34;5053694;28;20201;-62
2022/06/13 08:03:05;;;;;;;5.70;4.47;;;;;;;42.00;26.10;94177.66;5058349;28;20640;-62
2022/06/13 08:05:50;;;;;;;4.90;4.00;;;;;;;42.26;25.70;94166.88;5052255;28;20641;-62
2022/06/13 08:08:35;;;;;;;4.67;3.23;;;;;;;41.11;25.30;94170.44;5045769;28;20213;-62
2022/06/13 08:11:32;;;;;;;4.43;3.70;;;;;;;42.23;26.21;94180.28;5053587;28;20240;-62
2022/06/13 08:14:17;;;;;;;3.93;3.30;;;;;;;41.53;25.61;94170.16;5054325;28;20237;-62
2022/06/13 08:17:01;;;;;;;4.53;3.20;;;;;;;41.08;25.31;94183.09;5050641;28;20205;-62
2022/06/13 08:19:45;;;;;;;3.90;3.07;;;;;;;40.17;26.09;94184.44;5057345;28;20248;-62
2022/06/13 08:22:29;;;;;;;3.37;3.07;;;;;;;42.23;24.85;94177.31;5052519;28;20235;-62
2022/06/13 08:25:20;;;;;;;3.53;3.23;;;;;;;43.00;23.37;94183.25;5060462;28;20653;-62
2022/06/13 08:28:05;;;;;;;5.40;2.90;;;;;;;41.02;24.15;94186.97;5059411;28;20201;-62
2022/06/13 08:30:49;;;;;;;3.57;2.47;;;;;;;41.41;25.23;94200.81;5054637;28;20221;-63
2022/06/13 08:33:33;;;;;;;3.53;2.60;;;;;;;41.33;24.09;94188.66;5048503;28;20270;-63
2022/06/13 08:36:19;;;;;;;2.92;2.50;;;;;;;41.07;24.86;94175.78;5045017;28;20224;-63
2022/06/13 08:39:04;;;;;;;3.50;2.50;;;;;;;38.87;26.84;94191.19;5062406;28;20658;-63
2022/06/13 08:42:00;;;;;;;5.13;2.53;;;;;;;39.39;25.74;94191.66;5048534;28;20261;-63
2022/06/13 08:45:08;;;;;;;3.73;2.13;;;;;;;40.49;24.69;94187.66;5049700;28;20221;-63
2022/06/13 08:48:11;;;;;;;5.43;2.80;;;;;;;39.36;26.18;94204.97;5052726;28;20193;-63
2022/06/13 08:50:59;;;;;;;3.47;2.90;;;;;;;39.23;24.95;94207.56;5054344;28;20629;-63
2022/06/13 08:54:01;;;;;;;5.13;2.87;;;;;;;40.75;23.76;94218.94;5054915;28;20247;-63
2022/06/13 08:56:46;;;;;;;4.60;2.60;;;;;;;41.02;24.02;94215.66;5053579;28;20731;-63
2022/06/13 08:59:37;;;;;;;3.60;2.60;;;;;;;41.82;23.89;94211.53;5050158;28;20896;-64
2022/06/13 09:02:27;;;;;;;2.77;2.43;;;;;;;42.22;22.27;94220.13;5054951;28;20615;-65
2022/06/13 09:05:52;;;;;;;4.35;2.17;;;;;;;42.04;22.19;94217.97;5050671;28;20277;-65
2022/06/13 09:08:58;;;;;;;2.83;2.30;;;;;;;42.36;21.37;94220.19;5035752;28;20247;-64
2022/06/13 09:11:52;;;;;;;2.67;2.13;;;;;;;41.07;22.27;94226.50;5058616;28;20217;-64
2022/06/13 09:14:46;;;;;;;4.63;2.08;;;;;;;42.67;20.74;94228.31;5054379;28;20882;-65
2022/06/13 09:17:43;;;;;;;2.38;2.17;;;;;;;41.75;21.84;94233.22;5054658;28;20196;-65
2022/06/13 09:20:39;;;;;;;2.72;2.17;;;;;;;42.09;21.21;94231.72;5052903;28;20193;-65
2022/06/13 09:23:29;;;;;;;4.68;2.10;;;;;;;42.01;21.51;94237.25;5056149;28;20721;-65
2022/06/13 09:26:20;;;;;;;3.33;1.98;;;;;;;42.09;20.74;94237.63;5043696;28;20280;-66
2022/06/13 09:29:31;;;;;;;3.90;2.05;;;;;;;40.45;21.92;94252.44;5058744;28;20862;-66
2022/06/13 09:32:16;;;;;;;4.33;2.30;;;;;;;41.79;20.18;94230.09;5052033;28;20201;-66
2022/06/13 09:35:10;;;;;;;5.07;1.90;;;;;;;41.12;21.13;94254.22;5053455;28;20283;-66
2022/06/13 09:38:06;;;;;;;3.42;1.58;;;;;;;41.81;18.59;94251.34;5052477;28;20205;-66
2022/06/13 09:41:02;;;;;;;3.15;1.88;;;;;;;44.50;17.50;94248.66;5059355;28;20205;-66
2022/06/13 09:44:03;;;;;;;2.47;1.63;;;;;;;42.32;18.36;94246.91;5051874;28;20204;-67
2022/06/13 09:47:08;;;;;;;2.28;1.25;;;;;;;42.13;18.68;94254.38;5066704;28;20227;-67
2022/06/13 09:49:58;;;;;;;3.60;1.75;;;;;;;43.38;17.68;94248.50;5050100;28;20565;-66
2022/06/13 09:52:45;;;;;;;3.95;1.58;;;;;;;45.92;15.81;94256.81;5044545;28;20201;-67
2022/06/13 09:55:42;;;;;;;3.40;1.52;;;;;;;46.72;15.85;94260.88;5062028;28;20196;-66
2022/06/13 09:59:10;;;;;;;4.93;1.70;;;;;;;43.57;17.01;94262.38;5058152;28;20189;-66
2022/06/13 10:02:20;;;;;;;4.32;1.73;;;;;;;44.32;17.03;94256.25;5048241;28;20268;-66
2022/06/13 10:05:13;;;;;;;8.23;1.67;;;;;;;44.38;16.02;94264.09;5048707;28;20212;-67
2022/06/13 10:08:12;;;;;;;3.90;1.80;;;;;;;43.07;17.59;94263.31;5057199;28;20201;-66
2022/06/13 10:11:05;;;;;;;10.65;1.70;;;;;;;44.09;16.77;94264.84;5052326;28;20232;-66
2022/06/13 10:14:05;;;;;;;3.58;1.45;;;;;;;43.83;17.25;94263.97;5050577;28;20294;-67
2022/06/13 10:17:08;;;;;;;3.53;1.60;;;;;;;44.52;16.85;94266.28;5048045;28;20568;-66
2022/06/13 10:20:14;;;;;;;5.60;1.70;;;;;;;44.77;16.63;94266.38;5067149;28;20731;-66
2022/06/13 10:23:33;;;;;;;2.28;1.42;;;;;;;44.25;16.08;94264.72;5055215;28;20673;-66
2022/06/13 10:26:23;;;;;;;7.38;1.45;;;;;;;44.30;16.12;94265.97;5056389;28;20400;-66
2022/06/13 10:29:28;;;;;;;3.55;1.60;;;;;;;45.11;15.40;94267.47;5056310;28;20725;-66
2022/06/13 10:32:18;;;;;;;5.25;1.42;;;;;;;44.66;15.91;94281.00;5053869;28;20228;-67
2022/06/13 10:35:11;;;;;;;4.60;1.70;;;;;;;46.11;14.86;94277.16;5057422;28;20206;-67
2022/06/13 10:38:25;;;;;;;6.57;1.75;;;;;;;44.05;15.95;94271.69;5052455;28;20247;-67
2022/06/13 10:41:10;;;;;;;2.85;1.77;;;;;;;44.60;15.76;94275.41;5051177;28;20214;-67
2022/06/13 10:43:56;;;;;;;6.18;1.88;;;;;;;46.19;14.22;94281.91;5048712;28;20615;-67
2022/06/13 10:47:07;;;;;;;20.40;7.15;;;;;;;44.76;15.16;94273.84;5067537;28;20200;-67
2022/06/13 10:49:57;;;;;;;39.22;13.25;;;;;;;47.81;14.16;94277.53;5056173;28;20212;-67
2022/06/13 10:52:47;;;;;;;5.60;2.00;;;;;;;48.57;12.87;94288.69;5057494;28;20288;-67
2022/06/13 10:55:39;;;;;;;5.38;2.10;;;;;;;47.20;13.63;94287.47;5055862;28;20252;-67
2022/06/13 10:58:36;;;;;;;11.73;6.03;;;;;;;44.73;14.76;94284.38;5060548;28;20208;-68
2022/06/13 11:01:23;;;;;;;5.53;2.03;;;;;;;41.64;16.56;94297.72;5052640;28;20672;-67
2022/06/13 11:04:19;;;;;;;3.65;1.70;;;;;;;46.86;13.25;94304.47;5060010;28;20221;-67
2022/06/13 11:07:12;;;;;;;3.90;1.67;;;;;;;47.89;12.36;94288.88;5048750;28;20252;-67
2022/06/13 11:09:58;;;;;;;9.27;2.20;;;;;;;48.28;12.53;94292.19;5052919;28;20213;-67
2022/06/13 11:12:48;;;;;;;5.70;1.98;;;;;;;49.44;11.66;94294.38;5059507;28;20196;-68
2022/06/13 11:24:58;;;;;;;7.28;2.30;;;;;;;46.35;13.35;94295.78;5053710;28;20608;-68
2022/06/13 11:27:45;;;;;;;5.38;1.70;;;;;;;45.81;13.20;94294.50;5058154;28;20212;-69
2022/06/13 11:30:36;;;;;;;6.30;2.05;;;;;;;47.56;12.20;94295.53;5056375;28;20255;-68
2022/06/13 11:33:40;;;;;;;3.35;1.50;;;;;;;46.23;12.17;94299.47;5063107;28;20644;-68
2022/06/13 11:36:28;;;;;;;6.85;1.52;;;;;;;46.89;11.73;94293.91;5041136;28;20625;-68
2022/06/13 11:39:13;;;;;;;4.68;1.85;;;;;;;47.43;11.67;94289.69;5057536;28;20197;-69
2022/06/13 11:41:57;;;;;;;4.95;1.42;;;;;;;47.24;12.05;94299.06;5061511;28;20197;-68
2022/06/13 11:44:44;;;;;;;5.32;1.48;;;;;;;48.95;10.38;94288.25;5057425;28;20255;-69
2022/06/13 11:47:40;;;;;;;5.90;2.10;;;;;;;46.17;10.87;94285.00;5045087;28;20584;-68
2022/06/13 11:50:29;;;;;;;3.47;1.25;;;;;;;48.04;9.92;94274.47;5052378;28;20248;-68
2022/06/13 11:56:28;;;;;;;3.50;1.42;;;;;;;47.94;9.50;94295.97;5057149;28;20702;-69
2022/06/13 11:59:15;;;;;;;4.95;1.05;;;;;;;49.89;9.11;94282.09;5058582;28;20243;-69
2022/06/13 12:01:59;;;;;;;4.25;1.30;;;;;;;49.34;9.39;94289.84;5055434;28;20216;-67
2022/06/13 12:04:46;;;;;;;4.13;1.65;;;;;;;50.25;9.12;94300.19;5058314;28;20236;-66
2022/06/13 12:07:31;;;;;;;3.35;1.30;;;;;;;51.22;9.35;94297.81;5054788;28;20197;-69
2022/06/13 12:10:23;;;;;;;5.93;1.80;;;;;;;45.79;11.95;94300.56;5051275;28;20272;-68
2022/06/13 12:13:14;;;;;;;6.25;3.85;;;;;;;48.14;10.84;94279.75;5053257;28;20271;-69
2022/06/13 12:16:48;;;;;;;5.55;3.13;;;;;;;47.99;10.32;94284.50;5056374;28;20204;-69
2022/06/13 12:20:11;;;;;;;4.18;1.42;;;;;;;47.97;10.68;94282.38;5036462;28;20727;-69
2022/06/13 12:23:10;;;;;;;7.10;3.42;;;;;;;50.92;8.92;94292.00;5044995;28;20235;-69
2022/06/13 12:26:16;;;;;;;7.78;2.08;;;;;;;49.85;9.55;94288.38;5041839;28;20218;-69
2022/06/13 12:29:18;;;;;;;6.25;1.90;;;;;;;52.63;8.70;94288.22;5057008;28;20251;-68
2022/06/13 12:32:25;;;;;;;5.00;1.58;;;;;;;51.47;8.99;94299.53;5050726;28;20292;-66
2022/06/13 12:35:47;;;;;;;4.13;1.40;;;;;;;49.51;9.60;94295.31;5053311;28;20254;-69
2022/06/13 12:38:48;;;;;;;5.10;1.73;;;;;;;46.41;10.63;94289.47;5057668;28;20609;-68
2022/06/13 12:41:38;;;;;;;5.82;3.35;;;;;;;51.11;8.56;94294.91;5055810;28;20210;-71
2022/06/13 12:44:40;;;;;;;6.60;1.48;;;;;;;49.20;9.69;94296.13;5040934;28;20678;-72
2022/06/13 12:47:27;;;;;;;4.00;1.50;;;;;;;51.27;8.99;94296.63;5061337;28;20247;-72
2022/06/13 12:50:51;;;;;;;4.63;1.63;;;;;;;50.42;9.72;94290.69;5053703;28;20256;-70
2022/06/13 12:54:13;;;;;;;8.70;4.47;;;;;;;51.94;8.14;94285.13;5047308;28;20255;-70
2022/06/13 12:57:06;;;;;;;7.38;2.25;;;;;;;49.88;9.19;94287.34;5049472;28;20572;-69
2022/06/13 13:00:21;;;;;;;2.92;1.05;;;;;;;51.93;8.22;94292.69;5057390;28;20217;-69
2022/06/13 13:03:11;;;;;;;4.82;1.40;;;;;;;47.73;10.15;94278.06;5047772;28;20263;-69
2022/06/13 13:06:16;;;;;;;5.63;1.83;;;;;;;48.97;9.83;94273.91;5058329;28;20272;-72
2022/06/13 13:09:22;;;;;;;5.78;1.45;;;;;;;47.49;10.39;94283.34;5049420;28;20252;-70
2022/06/13 13:12:51;;;;;;;4.20;1.50;;;;;;;51.05;9.09;94285.75;5044188;28;20190;-71
2022/06/13 13:15:59;;;;;;;4.93;1.60;;;;;;;49.68;9.26;94271.69;5044593;28;20236;-71
2022/06/13 13:19:05;;;;;;;5.35;3.33;;;;;;;51.04;8.29;94282.06;5047590;28;20255;-70
2022/06/13 13:22:07;;;;;;;4.53;1.67;;;;;;;49.26;9.42;94292.72;5045930;28;20202;-72
2022/06/13 13:25:03;;;;;;;5.20;1.60;;;;;;;48.66;9.19;94286.56;5047104;28;20714;-72
2022/06/13 13:28:11;;;;;;;3.65;1.45;;;;;;;47.96;10.30;94275.03;5051587;28;22196;-70
2022/06/13 13:30:59;;;;;;;5.43;2.08;;;;;;;48.18;10.48;94278.75;5054414;28;20717;-72
2022/06/13 13:33:52;;;;;;;5.05;2.10;;;;;;;51.87;8.39;94281.22;5056930;28;20201;-71
2022/06/13 13:36:53;;;;;;;3.88;1.83;;;;;;;50.49;8.42;94289.38;5050433;28;20221;-72
2022/06/13 13:39:57;;;;;;;3.88;1.35;;;;;;;48.59;9.52;94273.66;5052655;28;20272;-71
2022/06/13 13:42:55;;;;;;;8.75;1.67;;;;;;;46.04;11.27;94290.25;5054938;28;20276;-69
2022/06/13 13:45:48;;;;;;;6.38;1.85;;;;;;;49.84;9.42;94286.94;5052822;28;20237;-70
2022/06/13 13:48:44;;;;;;;6.30;4.65;;;;;;;51.45;8.14;94302.66;5059017;28;20228;-70
2022/06/13 13:51:40;;;;;;;4.18;1.98;;;;;;;52.54;8.02;94287.50;5052843;28;20265;-69
2022/06/13 13:54:28;;;;;;;2.88;1.33;;;;;;;50.18;8.87;94299.25;5052085;28;20210;-69
2022/06/13 13:57:32;;;;;;;10.60;3.75;;;;;;;50.57;7.94;94294.69;5054849;28;20199;-70
2022/06/13 14:00:36;;;;;;;3.15;1.58;;;;;;;48.24;9.84;94284.97;5057380;28;20247;-70